createdAt,value
2023-01-08T00:02:25.968Z,10.80
2023-01-08T00:04:52.683Z,10.70
2023-01-08T00:07:19.363Z,10.60
2023-01-08T00:09:47.798Z,10.60
2023-01-08T00:12:14.483Z,10.50
2023-01-08T00:14:41.193Z,10.40
2023-01-08T00:17:08.583Z,10.40
2023-01-08T00:19:35.450Z,10.30
2023-01-08T00:22:02.135Z,10.30
2023-01-08T00:24:28.822Z,10.30
2023-01-08T00:26:55.561Z,10.30
2023-01-08T00:29:22.249Z,10.20
2023-01-08T00:31:48.923Z,10.20
2023-01-08T00:34:15.638Z,10.20
2023-01-08T00:36:42.349Z,10.20
2023-01-08T00:39:09.060Z,10.20
2023-01-08T00:41:35.825Z,10.20
2023-01-08T00:44:02.571Z,10.20
2023-01-08T00:46:29.276Z,10.30
2023-01-08T00:48:56.167Z,10.30
2023-01-08T00:51:22.880Z,10.30
2023-01-08T00:53:49.576Z,10.30
2023-01-08T00:56:16.267Z,10.30
2023-01-08T00:58:42.978Z,10.30
2023-01-08T01:01:15.322Z,10.30
2023-01-08T01:03:42.395Z,10.30
2023-01-08T01:06:10.909Z,10.30
2023-01-08T01:08:37.658Z,10.40
2023-01-08T01:11:25.188Z,10.40
2023-01-08T01:13:52.670Z,10.40
2023-01-08T01:16:19.460Z,10.50
2023-01-08T01:18:46.484Z,10.50
2023-01-08T01:21:21.187Z,10.50
2023-01-08T01:23:47.931Z,10.50
2023-01-08T01:26:17.282Z,10.50
2023-01-08T01:28:44.224Z,10.60
2023-01-08T01:31:13.575Z,10.60
2023-01-08T01:33:41.043Z,10.50
2023-01-08T01:36:08.004Z,10.50
2023-01-08T01:38:34.676Z,10.50
2023-01-08T01:41:01.483Z,10.50
2023-01-08T01:43:36.254Z,10.60
2023-01-08T01:46:04.756Z,10.50
2023-01-08T01:48:31.574Z,10.50
2023-01-08T01:50:58.425Z,10.50
2023-01-08T01:53:29.075Z,10.50
2023-01-08T01:55:57.664Z,10.50
2023-01-08T01:58:27.687Z,10.50
2023-01-08T02:00:57.251Z,10.50
2023-01-08T02:03:26.604Z,10.50
2023-01-08T02:06:22.606Z,10.50
2023-01-08T02:09:16.478Z,10.50
2023-01-08T02:12:14.472Z,10.50
2023-01-08T02:14:56.915Z,10.40
2023-01-08T02:17:35.628Z,10.40
2023-01-08T02:20:27.235Z,10.40
2023-01-08T02:23:06.127Z,10.40
2023-01-08T02:25:41.585Z,10.40
2023-01-08T02:28:14.177Z,10.40
2023-01-08T02:30:41.875Z,10.40
2023-01-08T02:33:08.726Z,10.40
2023-01-08T02:36:14.841Z,10.30
2023-01-08T02:38:51.549Z,10.40
2023-01-08T02:41:22.424Z,10.30
2023-01-08T02:43:53.908Z,10.40
2023-01-08T02:46:27.884Z,10.30
2023-01-08T02:49:02.217Z,10.40
2023-01-08T02:51:41.146Z,10.40
2023-01-08T02:54:15.052Z,10.40
2023-01-08T02:56:51.312Z,10.40
2023-01-08T02:59:19.833Z,10.40
2023-01-08T03:01:47.420Z,10.40
2023-01-08T03:04:18.345Z,10.40
2023-01-08T03:06:46.220Z,10.40
2023-01-08T03:09:14.279Z,10.40
2023-01-08T03:12:18.356Z,10.40
2023-01-08T03:14:55.795Z,10.40
2023-01-08T03:17:46.792Z,10.40
2023-01-08T03:20:18.458Z,10.40
2023-01-08T03:22:49.387Z,10.40
2023-01-08T03:25:18.491Z,10.40
2023-01-08T03:27:50.585Z,10.40
2023-01-08T03:30:19.298Z,10.40
2023-01-08T03:32:48.403Z,10.40
2023-01-08T03:35:19.552Z,10.40
2023-01-08T03:37:53.379Z,10.40
2023-01-08T03:40:39.284Z,10.40
2023-01-08T03:43:06.065Z,10.40
2023-01-08T03:45:33.997Z,10.40
2023-01-08T03:48:02.857Z,10.40
2023-01-08T03:50:32.074Z,10.40
2023-01-08T03:53:00.724Z,10.40
2023-01-08T03:55:27.794Z,10.40
2023-01-08T03:57:54.508Z,10.40
2023-01-08T04:00:21.297Z,10.40
2023-01-08T04:02:47.992Z,10.40
2023-01-08T04:05:14.795Z,10.40
2023-01-08T04:07:41.492Z,10.40
2023-01-08T04:10:08.542Z,10.40
2023-01-08T04:12:35.222Z,10.40
2023-01-08T04:15:01.956Z,10.40
2023-01-08T04:17:28.724Z,10.30
2023-01-08T04:19:55.482Z,10.40
2023-01-08T04:22:22.209Z,10.40
2023-01-08T04:24:49.005Z,10.40
2023-01-08T04:27:15.732Z,10.30
2023-01-08T04:29:42.457Z,10.30
2023-01-08T04:32:09.293Z,10.30
2023-01-08T04:34:36.003Z,10.30
2023-01-08T04:37:03.136Z,10.30
2023-01-08T04:39:29.845Z,10.30
2023-01-08T04:41:56.544Z,10.30
2023-01-08T04:44:23.324Z,10.30
2023-01-08T04:46:50.095Z,10.30
2023-01-08T04:49:17.014Z,10.20
2023-01-08T04:51:43.845Z,10.30
2023-01-08T04:54:10.762Z,10.20
2023-01-08T04:56:37.579Z,10.20
2023-01-08T04:59:04.323Z,10.20
2023-01-08T05:01:31.175Z,10.20
2023-01-08T05:04:03.754Z,10.10
2023-01-08T05:06:31.839Z,10.10
2023-01-08T05:08:58.542Z,10.10
2023-01-08T05:11:25.727Z,10.10
2023-01-08T05:13:53.153Z,10.00
2023-01-08T05:16:19.951Z,10.00
2023-01-08T05:18:47.124Z,10.00
2023-01-08T05:21:14.096Z,10.00
2023-01-08T05:23:44.216Z,10.00
2023-01-08T05:26:10.920Z,9.90
2023-01-08T05:28:37.584Z,9.90
2023-01-08T05:31:04.401Z,9.90
2023-01-08T05:33:31.567Z,9.90
2023-01-08T05:35:58.316Z,9.80
2023-01-08T05:38:25.049Z,9.80
2023-01-08T05:40:54.617Z,9.80
2023-01-08T05:43:21.389Z,9.80
2023-01-08T05:45:48.312Z,9.70
2023-01-08T05:48:15.027Z,9.70
2023-01-08T05:50:41.778Z,9.70
2023-01-08T05:53:08.982Z,9.60
2023-01-08T05:55:35.899Z,9.70
2023-01-08T05:58:04.689Z,9.60
2023-01-08T06:00:31.806Z,9.60
2023-01-08T06:02:58.888Z,9.60
2023-01-08T06:05:25.956Z,9.50
2023-01-08T06:07:52.739Z,9.50
2023-01-08T06:10:19.417Z,9.50
2023-01-08T06:12:46.169Z,9.50
2023-01-08T06:15:12.920Z,9.40
2023-01-08T06:17:39.728Z,9.40
2023-01-08T06:20:07.234Z,9.40
2023-01-08T06:22:34.758Z,9.40
2023-01-08T06:25:01.863Z,9.30
2023-01-08T06:27:28.772Z,9.30
2023-01-08T06:29:55.500Z,9.30
2023-01-08T06:32:22.264Z,9.30
2023-01-08T06:34:48.919Z,9.20
2023-01-08T06:37:15.630Z,9.20
2023-01-08T06:39:42.297Z,9.20
2023-01-08T06:42:09.057Z,9.10
2023-01-08T06:44:35.754Z,9.10
2023-01-08T06:47:02.440Z,9.10
2023-01-08T06:49:29.153Z,9.10
2023-01-08T06:51:57.182Z,9.10
2023-01-08T06:54:23.894Z,9.10
2023-01-08T06:56:54.051Z,9.00
2023-01-08T06:59:21.088Z,9.00
2023-01-08T07:01:48.077Z,9.00
2023-01-08T07:04:15.129Z,8.90
2023-01-08T07:06:41.823Z,8.90
2023-01-08T07:09:14.795Z,8.90
2023-01-08T07:11:42.041Z,8.90
2023-01-08T07:14:08.753Z,8.80
2023-01-08T07:16:36.213Z,8.80
2023-01-08T07:19:02.953Z,8.80
2023-01-08T07:21:31.031Z,8.80
2023-01-08T07:23:59.473Z,8.80
2023-01-08T07:26:26.816Z,8.80
2023-01-08T07:28:53.585Z,8.80
2023-01-08T07:31:20.589Z,8.70
2023-01-08T07:33:47.470Z,8.70
2023-01-08T07:36:15.690Z,8.70
2023-01-08T07:38:43.020Z,8.70
2023-01-08T07:41:09.772Z,8.70
2023-01-08T07:43:36.664Z,8.70
2023-01-08T07:46:04.089Z,8.70
2023-01-08T07:48:31.042Z,8.70
2023-01-08T07:51:05.767Z,8.60
2023-01-08T07:53:32.728Z,8.60
2023-01-08T07:56:07.812Z,8.60
2023-01-08T07:58:35.583Z,8.60
2023-01-08T08:01:03.370Z,8.60
2023-01-08T08:03:30.201Z,8.50
2023-01-08T08:05:56.933Z,8.50
2023-01-08T08:08:23.631Z,8.50
2023-01-08T08:10:50.324Z,8.50
2023-01-08T08:13:17.128Z,8.50
2023-01-08T08:15:44.037Z,8.50
2023-01-08T08:18:10.914Z,8.50
2023-01-08T08:20:38.656Z,8.40
2023-01-08T08:23:13.020Z,8.40
2023-01-08T08:25:40.932Z,8.40
2023-01-08T08:28:09.501Z,8.40
2023-01-08T08:30:37.509Z,8.40
2023-01-08T08:33:06.219Z,8.40
2023-01-08T08:35:34.580Z,8.40
2023-01-08T08:38:01.713Z,8.40
2023-01-08T08:40:28.903Z,8.40
2023-01-08T08:43:00.626Z,8.40
2023-01-08T08:45:28.254Z,8.40
2023-01-08T08:47:55.116Z,8.40
2023-01-08T08:50:22.902Z,8.40
2023-01-08T08:52:49.669Z,8.40
2023-01-08T08:55:17.412Z,8.40
2023-01-08T08:57:45.303Z,8.40
2023-01-08T09:00:13.476Z,8.40
2023-01-08T09:02:40.372Z,8.40
2023-01-08T09:05:07.543Z,8.40
2023-01-08T09:07:34.554Z,8.40
2023-01-08T09:10:01.311Z,8.40
2023-01-08T09:12:28.356Z,8.30
2023-01-08T09:14:57.063Z,8.30
2023-01-08T09:17:25.865Z,8.30
2023-01-08T09:19:52.697Z,8.30
2023-01-08T09:22:19.617Z,8.30
2023-01-08T09:24:46.558Z,8.40
2023-01-08T09:27:14.040Z,8.40
2023-01-08T09:29:40.815Z,8.40
2023-01-08T09:32:07.855Z,8.40
2023-01-08T09:34:36.357Z,8.50
2023-01-08T09:37:03.999Z,8.50
2023-01-08T09:39:30.751Z,8.50
2023-01-08T09:42:01.086Z,8.50
2023-01-08T09:44:29.856Z,8.50
2023-01-08T09:46:57.262Z,8.60
2023-01-08T09:50:01.407Z,8.60
2023-01-08T09:52:29.497Z,8.70
2023-01-08T09:54:56.467Z,8.70
2023-01-08T09:57:23.236Z,8.70
2023-01-08T09:59:50.564Z,8.80
2023-01-08T10:02:25.809Z,8.80
2023-01-08T10:05:00.717Z,8.80
2023-01-08T10:07:30.463Z,8.90
2023-01-08T10:09:57.297Z,8.90
2023-01-08T10:12:31.140Z,9.00
2023-01-08T10:15:02.184Z,9.10
2023-01-08T10:17:41.967Z,9.10
2023-01-08T10:20:19.415Z,9.10
2023-01-08T10:22:50.113Z,9.20
2023-01-08T10:25:19.840Z,9.20
2023-01-08T10:27:48.277Z,9.30
2023-01-08T10:30:21.675Z,9.40
2023-01-08T10:32:54.865Z,9.40
2023-01-08T10:35:33.261Z,9.50
2023-01-08T10:38:00.141Z,9.50
2023-01-08T10:40:31.120Z,9.60
2023-01-08T10:43:08.173Z,9.60
2023-01-08T10:45:35.454Z,9.70
2023-01-08T10:48:06.537Z,9.70
2023-01-08T10:50:35.109Z,9.80
2023-01-08T10:53:04.458Z,9.80
2023-01-08T10:55:33.287Z,9.90
2023-01-08T10:58:04.708Z,9.90
2023-01-08T11:00:34.135Z,9.90
2023-01-08T11:03:06.957Z,10.00
2023-01-08T11:05:39.080Z,10.10
2023-01-08T11:08:08.260Z,10.10
2023-01-08T11:10:37.004Z,10.10
2023-01-08T11:13:07.344Z,10.20
2023-01-08T11:15:39.243Z,10.20
2023-01-08T11:18:07.211Z,10.30
2023-01-08T11:20:34.983Z,10.30
2023-01-08T11:23:06.554Z,10.30
2023-01-08T11:25:35.640Z,10.40
2023-01-08T11:28:04.873Z,10.40
2023-01-08T11:30:36.260Z,10.40
2023-01-08T11:33:06.762Z,10.50
2023-01-08T11:35:36.867Z,10.50
2023-01-08T11:38:05.565Z,10.60
2023-01-08T11:40:44.459Z,10.60
2023-01-08T11:43:37.171Z,10.70
2023-01-08T11:46:33.931Z,10.70
2023-01-08T11:49:22.309Z,10.70
2023-01-08T11:52:28.480Z,10.80
2023-01-08T11:54:57.892Z,10.80
2023-01-08T11:57:42.484Z,10.80
2023-01-08T12:00:31.378Z,10.80
2023-01-08T12:03:00.878Z,10.80
2023-01-08T12:05:29.210Z,10.90
2023-01-08T12:08:01.715Z,10.80
2023-01-08T12:10:31.439Z,10.90
2023-01-08T12:13:04.064Z,10.90
2023-01-08T12:15:52.326Z,10.90
2023-01-08T12:18:34.110Z,10.90
2023-01-08T12:21:31.011Z,11.00
2023-01-08T12:24:19.512Z,11.00
2023-01-08T12:27:03.755Z,11.00
2023-01-08T12:29:56.843Z,11.00
2023-01-08T12:32:39.986Z,11.00
2023-01-08T12:35:24.555Z,11.00
2023-01-08T12:38:09.731Z,11.00
2023-01-08T12:40:41.718Z,11.00
2023-01-08T12:43:19.275Z,11.00
2023-01-08T12:45:50.577Z,11.10
2023-01-08T12:48:21.524Z,11.10
2023-01-08T12:51:17.912Z,11.10
2023-01-08T12:54:03.438Z,11.10
2023-01-08T12:56:59.536Z,11.10
2023-01-08T12:59:32.061Z,11.10
2023-01-08T13:02:44.247Z,11.00
2023-01-08T13:05:35.454Z,11.10
2023-01-08T13:08:20.140Z,11.10
2023-01-08T13:10:53.800Z,11.10
2023-01-08T13:13:39.724Z,11.10
2023-01-08T13:16:21.736Z,11.10
2023-01-08T13:18:57.320Z,11.10
2023-01-08T13:21:37.827Z,11.10
2023-01-08T13:24:26.783Z,11.10
2023-01-08T13:26:54.097Z,11.10
2023-01-08T13:29:39.128Z,11.10
2023-01-08T13:32:35.992Z,11.10
2023-01-08T13:35:11.687Z,11.10
2023-01-08T13:37:38.404Z,11.10
2023-01-08T13:40:25.489Z,11.10
2023-01-08T13:42:52.268Z,11.10
2023-01-08T13:45:19.042Z,11.10
2023-01-08T13:47:46.766Z,11.10
2023-01-08T13:50:20.592Z,11.10
2023-01-08T13:53:05.752Z,11.10
2023-01-08T13:55:39.818Z,11.10
2023-01-08T13:58:32.720Z,11.10
2023-01-08T14:01:01.178Z,11.10
2023-01-08T14:03:33.899Z,11.00
2023-01-08T14:06:19.554Z,11.00
2023-01-08T14:09:05.477Z,11.00
2023-01-08T14:11:37.450Z,11.00
2023-01-08T14:14:04.419Z,11.00
2023-01-08T14:16:33.344Z,11.00
2023-01-08T14:19:01.754Z,11.00
2023-01-08T14:21:29.178Z,11.00
2023-01-08T14:23:56.160Z,11.00
2023-01-08T14:26:35.459Z,11.00
2023-01-08T14:29:04.661Z,11.00
2023-01-08T14:31:31.397Z,11.00
2023-01-08T14:34:00.148Z,11.00
2023-01-08T14:36:27.489Z,11.00
2023-01-08T14:38:54.230Z,11.00
2023-01-08T14:41:55.139Z,11.00
2023-01-08T14:44:36.384Z,11.00
2023-01-08T14:47:04.408Z,11.00
2023-01-08T14:49:34.901Z,10.90
2023-01-08T14:52:02.824Z,10.90
2023-01-08T14:54:34.234Z,10.90
2023-01-08T14:57:02.829Z,10.90
2023-01-08T14:59:33.973Z,10.90
2023-01-08T15:02:05.254Z,10.90
2023-01-08T15:04:32.355Z,10.80
2023-01-08T15:07:22.280Z,10.80
2023-01-08T15:10:01.271Z,10.80
2023-01-08T15:12:30.784Z,10.70
2023-01-08T15:15:08.579Z,10.70
2023-01-08T15:17:35.429Z,10.70
2023-01-08T15:20:02.437Z,10.60
2023-01-08T15:22:32.805Z,10.60
2023-01-08T15:25:06.744Z,10.60
2023-01-08T15:27:37.349Z,10.50
2023-01-08T15:30:09.095Z,10.50
2023-01-08T15:32:37.414Z,10.50
2023-01-08T15:35:15.803Z,10.40
2023-01-08T15:37:42.589Z,10.40
2023-01-08T15:40:11.178Z,10.40
2023-01-08T15:42:57.214Z,10.40
2023-01-08T15:45:28.592Z,10.30
2023-01-08T15:47:55.781Z,10.30
2023-01-08T15:50:23.449Z,10.20
2023-01-08T15:52:50.257Z,10.20
2023-01-08T15:55:19.324Z,10.20
2023-01-08T15:57:46.220Z,10.10
2023-01-08T16:00:14.982Z,10.10
2023-01-08T16:02:49.708Z,10.10
2023-01-08T16:05:17.749Z,10.00
2023-01-08T16:07:47.910Z,10.00
2023-01-08T16:10:15.857Z,10.00
2023-01-08T16:12:45.304Z,9.90
2023-01-08T16:15:13.205Z,9.90
2023-01-08T16:17:40.398Z,9.80
2023-01-08T16:20:08.094Z,9.80
2023-01-08T16:22:34.968Z,9.80
2023-01-08T16:25:01.720Z,9.70
2023-01-08T16:27:30.174Z,9.70
2023-01-08T16:29:56.885Z,9.60
2023-01-08T16:32:23.606Z,9.60
2023-01-08T16:34:50.303Z,9.60
2023-01-08T16:37:17.029Z,9.60
2023-01-08T16:39:43.776Z,9.50
2023-01-08T16:42:11.968Z,9.50
2023-01-08T16:44:39.101Z,9.50
2023-01-08T16:47:05.918Z,9.50
2023-01-08T16:49:33.518Z,9.50
2023-01-08T16:52:00.590Z,9.50
2023-01-08T16:54:27.570Z,9.50
2023-01-08T16:56:54.322Z,9.40
2023-01-08T16:59:23.604Z,9.40
2023-01-08T17:01:54.393Z,9.40
2023-01-08T17:04:21.193Z,9.40
2023-01-08T17:06:47.948Z,9.50
2023-01-08T17:09:15.031Z,9.50
2023-01-08T17:11:42.399Z,9.40
2023-01-08T17:14:09.697Z,9.50
2023-01-08T17:16:36.541Z,9.50
2023-01-08T17:19:03.487Z,9.50
2023-01-08T17:21:30.287Z,9.60
2023-01-08T17:23:57.007Z,9.60
2023-01-08T17:26:24.085Z,9.60
2023-01-08T17:28:50.892Z,9.60
2023-01-08T17:31:18.922Z,9.70
2023-01-08T17:33:50.244Z,9.70
2023-01-08T17:36:20.439Z,9.70
2023-01-08T17:38:49.228Z,9.70
2023-01-08T17:41:35.733Z,9.80
2023-01-08T17:44:03.411Z,9.80
2023-01-08T17:46:30.147Z,9.80
2023-01-08T17:48:56.831Z,9.80
2023-01-08T17:51:23.503Z,9.80
2023-01-08T17:53:50.244Z,9.80
2023-01-08T17:56:16.898Z,9.90
2023-01-08T17:58:43.676Z,9.90
2023-01-08T18:01:13.006Z,9.90
2023-01-08T18:03:39.837Z,9.90
2023-01-08T18:06:10.314Z,9.90
2023-01-08T18:08:38.256Z,9.90
2023-01-08T18:11:06.957Z,9.80
2023-01-08T18:13:33.794Z,9.80
2023-01-08T18:16:06.218Z,9.80
2023-01-08T18:18:33.408Z,9.80
2023-01-08T18:21:00.215Z,9.80
2023-01-08T18:23:27.039Z,9.80
2023-01-08T18:25:53.725Z,9.70
2023-01-08T18:28:20.485Z,9.70
2023-01-08T18:30:47.377Z,9.70
2023-01-08T18:33:15.105Z,9.70
2023-01-08T18:35:42.262Z,9.70
2023-01-08T18:38:15.904Z,9.70
2023-01-08T18:40:43.785Z,9.70
2023-01-08T18:43:12.025Z,9.70
2023-01-08T18:45:39.570Z,9.70
2023-01-08T18:48:07.885Z,9.70
2023-01-08T18:50:34.729Z,9.70
2023-01-08T18:53:04.570Z,9.70
2023-01-08T18:55:31.403Z,9.70
2023-01-08T18:57:58.242Z,9.70
2023-01-08T19:00:26.352Z,9.70
2023-01-08T19:02:54.005Z,9.70
2023-01-08T19:05:21.395Z,9.70
2023-01-08T19:07:48.238Z,9.70
2023-01-08T19:10:17.287Z,9.60
2023-01-08T19:12:44.577Z,9.60
2023-01-08T19:15:11.719Z,9.60
2023-01-08T19:17:38.673Z,9.60
2023-01-08T19:20:06.164Z,9.60
2023-01-08T19:22:33.065Z,9.50
2023-01-08T19:24:59.952Z,9.50
2023-01-08T19:27:26.805Z,9.50
2023-01-08T19:29:53.656Z,9.50
2023-01-08T19:32:20.654Z,9.50
2023-01-08T19:34:47.551Z,9.50
2023-01-08T19:37:14.973Z,9.50
2023-01-08T19:39:41.834Z,9.50
2023-01-08T19:42:29.078Z,9.50
2023-01-08T19:44:56.521Z,9.50
2023-01-08T19:47:23.846Z,9.50
2023-01-08T19:49:50.833Z,9.50
2023-01-08T19:52:17.761Z,9.50
2023-01-08T19:54:44.550Z,9.50
2023-01-08T19:57:11.372Z,9.50
2023-01-08T19:59:38.221Z,9.50
2023-01-08T20:02:05.264Z,9.50
2023-01-08T20:04:34.110Z,9.50
2023-01-08T20:07:01.030Z,9.50
2023-01-08T20:09:28.978Z,9.50
2023-01-08T20:11:55.994Z,9.50
2023-01-08T20:14:22.712Z,9.50
2023-01-08T20:16:49.474Z,9.50
2023-01-08T20:19:16.295Z,9.50
2023-01-08T20:21:42.980Z,9.50
2023-01-08T20:24:15.101Z,9.50
2023-01-08T20:26:46.795Z,9.50
2023-01-08T20:29:15.410Z,9.50
2023-01-08T20:31:43.816Z,9.50
2023-01-08T20:34:15.539Z,9.50
2023-01-08T20:36:44.682Z,9.50
2023-01-08T20:39:15.085Z,9.50
2023-01-08T20:41:46.709Z,9.50
2023-01-08T20:44:22.500Z,9.50
2023-01-08T20:46:49.362Z,9.50
2023-01-08T20:49:18.358Z,9.50
2023-01-08T20:51:54.319Z,9.50
2023-01-08T20:54:25.061Z,9.50
2023-01-08T20:56:54.092Z,9.50
2023-01-08T20:59:20.777Z,9.50
2023-01-08T21:01:47.513Z,9.40
2023-01-08T21:04:14.434Z,9.40
2023-01-08T21:06:41.147Z,9.40
2023-01-08T21:09:10.619Z,9.40
2023-01-08T21:11:39.428Z,9.40
2023-01-08T21:14:10.128Z,9.40
2023-01-08T21:16:39.574Z,9.30
2023-01-08T21:19:06.636Z,9.30
2023-01-08T21:21:35.375Z,9.30
2023-01-08T21:24:04.250Z,9.30
2023-01-08T21:26:32.382Z,9.20
2023-01-08T21:29:00.174Z,9.20
2023-01-08T21:31:28.420Z,9.20
2023-01-08T21:33:57.419Z,9.20
2023-01-08T21:36:26.909Z,9.10
2023-01-08T21:38:55.867Z,9.10
2023-01-08T21:41:43.205Z,9.10
2023-01-08T21:44:34.318Z,9.10
2023-01-08T21:47:02.411Z,9.10
2023-01-08T21:49:29.225Z,9.00
2023-01-08T21:52:14.407Z,9.00
2023-01-08T21:54:41.319Z,9.00
2023-01-08T21:57:09.296Z,9.00
2023-01-08T21:59:36.838Z,9.00
2023-01-08T22:02:04.858Z,9.00
2023-01-08T22:04:31.786Z,9.00
2023-01-08T22:06:58.941Z,9.00
2023-01-08T22:09:25.675Z,9.00
2023-01-08T22:11:53.805Z,9.10
2023-01-08T22:14:20.530Z,9.10
2023-01-08T22:16:47.288Z,9.10
2023-01-08T22:19:14.189Z,9.10
2023-01-08T22:21:40.938Z,9.10
2023-01-08T22:24:07.976Z,9.10
2023-01-08T22:26:35.543Z,9.20
2023-01-08T22:29:03.699Z,9.20
2023-01-08T22:31:30.433Z,9.10
2023-01-08T22:33:58.518Z,9.20
2023-01-08T22:36:26.207Z,9.20
2023-01-08T22:38:52.945Z,9.20
2023-01-08T22:41:22.910Z,9.20
2023-01-08T22:43:55.863Z,9.20
2023-01-08T22:46:23.206Z,9.20
2023-01-08T22:48:49.968Z,9.20
2023-01-08T22:51:17.138Z,9.20
2023-01-08T22:53:43.935Z,9.20
2023-01-08T22:56:12.453Z,9.20
2023-01-08T22:58:41.273Z,9.20
2023-01-08T23:01:12.221Z,9.20
2023-01-08T23:03:45.659Z,9.20
2023-01-08T23:06:14.133Z,9.20
2023-01-08T23:08:42.800Z,9.20
2023-01-08T23:11:11.383Z,9.20
2023-01-08T23:13:38.619Z,9.20
2023-01-08T23:16:06.972Z,9.20
2023-01-08T23:18:35.083Z,9.20
2023-01-08T23:21:04.164Z,9.20
2023-01-08T23:23:31.182Z,9.20
2023-01-08T23:26:23.274Z,9.20
2023-01-08T23:28:51.065Z,9.10
2023-01-08T23:31:21.155Z,9.10
2023-01-08T23:33:48.461Z,9.10
2023-01-08T23:36:18.990Z,9.00
2023-01-08T23:38:46.435Z,9.00
2023-01-08T23:41:13.331Z,9.00
2023-01-08T23:43:41.303Z,9.00
2023-01-08T23:46:08.369Z,8.90
2023-01-08T23:48:35.415Z,8.90
2023-01-08T23:51:02.380Z,8.90
2023-01-08T23:53:29.069Z,8.90
2023-01-08T23:55:55.852Z,8.90
2023-01-08T23:58:23.123Z,8.80
